sensor_id;sensor_type;location;lat;lon;timestamp;pressure;altitude;pressure_sealevel;temperature;humidity
82575;BME280;72260;65.870;13.210;2023-12-14T00:01:30;100867.34;;;-11.38;70.18
82575;BME280;72260;65.870;13.210;2023-12-14T00:03:55;100867.78;;;-11.23;71.40
82575;BME280;72260;65.870;13.210;2023-12-14T00:06:21;100865.75;;;-11.33;71.25
82575;BME280;72260;65.870;13.210;2023-12-14T00:08:46;100866.13;;;-11.21;71.03
82575;BME280;72260;65.870;13.210;2023-12-14T00:11:12;100867.34;;;-11.36;70.87
82575;BME280;72260;65.870;13.210;2023-12-14T00:13:38;100869.84;;;-11.66;71.40
82575;BME280;72260;65.870;13.210;2023-12-14T00:16:04;100851.69;;;-11.78;73.39
82575;BME280;72260;65.870;13.210;2023-12-14T00:18:29;100860.81;;;-11.57;72.55
82575;BME280;72260;65.870;13.210;2023-12-14T00:20:55;100868.31;;;-11.61;72.94
82575;BME280;72260;65.870;13.210;2023-12-14T00:23:22;100862.53;;;-11.56;72.84
82575;BME280;72260;65.870;13.210;2023-12-14T00:25:47;100869.50;;;-11.50;72.75
82575;BME280;72260;65.870;13.210;2023-12-14T00:28:13;100872.75;;;-11.27;71.96
82575;BME280;72260;65.870;13.210;2023-12-14T00:30:39;100864.91;;;-11.33;71.09
82575;BME280;72260;65.870;13.210;2023-12-14T00:33:04;100860.81;;;-11.57;71.70
82575;BME280;72260;65.870;13.210;2023-12-14T00:35:30;100845.75;;;-11.77;71.74
82575;BME280;72260;65.870;13.210;2023-12-14T00:37:55;100864.28;;;-11.83;71.89
82575;BME280;72260;65.870;13.210;2023-12-14T00:40:21;100861.00;;;-11.79;72.29
82575;BME280;72260;65.870;13.210;2023-12-14T00:42:46;100871.31;;;-12.01;71.98
82575;BME280;72260;65.870;13.210;2023-12-14T00:45:12;100860.81;;;-11.85;73.30
82575;BME280;72260;65.870;13.210;2023-12-14T00:47:37;100863.50;;;-11.80;72.04
82575;BME280;72260;65.870;13.210;2023-12-14T00:50:03;100857.84;;;-11.70;71.77
82575;BME280;72260;65.870;13.210;2023-12-14T00:52:29;100855.41;;;-11.66;70.58
82575;BME280;72260;65.870;13.210;2023-12-14T00:54:55;100866.09;;;-11.79;70.54
82575;BME280;72260;65.870;13.210;2023-12-14T00:57:20;100855.59;;;-11.88;71.39
82575;BME280;72260;65.870;13.210;2023-12-14T00:59:46;100844.91;;;-12.05;71.80
82575;BME280;72260;65.870;13.210;2023-12-14T01:02:11;100860.53;;;-12.19;72.98
82575;BME280;72260;65.870;13.210;2023-12-14T01:04:37;100851.56;;;-12.34;73.15
82575;BME280;72260;65.870;13.210;2023-12-14T01:07:03;100856.72;;;-12.07;72.63
82575;BME280;72260;65.870;13.210;2023-12-14T01:09:29;100855.47;;;-11.93;71.62
82575;BME280;72260;65.870;13.210;2023-12-14T01:11:54;100861.53;;;-11.89;71.88
82575;BME280;72260;65.870;13.210;2023-12-14T01:14:20;100857.44;;;-12.11;70.33
82575;BME280;72260;65.870;13.210;2023-12-14T01:16:45;100858.91;;;-12.17;71.46
82575;BME280;72260;65.870;13.210;2023-12-14T01:19:11;100862.88;;;-12.26;74.25
82575;BME280;72260;65.870;13.210;2023-12-14T01:21:36;100858.69;;;-12.24;72.63
82575;BME280;72260;65.870;13.210;2023-12-14T01:24:01;100866.72;;;-12.38;72.05
82575;BME280;72260;65.870;13.210;2023-12-14T01:26:27;100867.31;;;-12.45;71.88
82575;BME280;72260;65.870;13.210;2023-12-14T01:28:53;100870.34;;;-12.30;72.42
82575;BME280;72260;65.870;13.210;2023-12-14T01:31:18;100873.81;;;-12.28;72.22
82575;BME280;72260;65.870;13.210;2023-12-14T01:33:46;100861.41;;;-12.19;72.22
82575;BME280;72260;65.870;13.210;2023-12-14T01:36:11;100864.59;;;-12.25;72.55
82575;BME280;72260;65.870;13.210;2023-12-14T01:38:37;100866.81;;;-12.10;70.71
82575;BME280;72260;65.870;13.210;2023-12-14T01:41:03;100860.91;;;-12.09;70.96
82575;BME280;72260;65.870;13.210;2023-12-14T01:43:29;100848.00;;;-12.13;71.19
82575;BME280;72260;65.870;13.210;2023-12-14T01:45:54;100846.56;;;-12.31;71.65
82575;BME280;72260;65.870;13.210;2023-12-14T01:48:19;100855.41;;;-12.46;71.89
82575;BME280;72260;65.870;13.210;2023-12-14T01:50:45;100861.09;;;-12.03;71.04
82575;BME280;72260;65.870;13.210;2023-12-14T01:53:10;100860.06;;;-12.08;70.97
82575;BME280;72260;65.870;13.210;2023-12-14T01:55:36;100863.72;;;-12.00;71.26
82575;BME280;72260;65.870;13.210;2023-12-14T01:58:02;100861.00;;;-11.79;70.83
82575;BME280;72260;65.870;13.210;2023-12-14T02:00:37;100848.06;;;-11.85;70.47
82575;BME280;72260;65.870;13.210;2023-12-14T02:03:05;100852.09;;;-11.63;70.62
82575;BME280;72260;65.870;13.210;2023-12-14T02:05:30;100856.19;;;-11.68;70.02
82575;BME280;72260;65.870;13.210;2023-12-14T02:07:56;100849.34;;;-11.71;69.71
82575;BME280;72260;65.870;13.210;2023-12-14T02:10:22;100849.03;;;-11.81;69.54
82575;BME280;72260;65.870;13.210;2023-12-14T02:12:48;100850.94;;;-12.01;69.99
82575;BME280;72260;65.870;13.210;2023-12-14T02:15:14;100854.72;;;-12.15;70.90
82575;BME280;72260;65.870;13.210;2023-12-14T02:17:39;100849.63;;;-12.15;71.59
82575;BME280;72260;65.870;13.210;2023-12-14T02:20:05;100854.78;;;-12.14;72.29
82575;BME280;72260;65.870;13.210;2023-12-14T02:22:47;100848.88;;;-12.13;71.42
82575;BME280;72260;65.870;13.210;2023-12-14T02:25:14;100851.00;;;-12.25;71.06
82575;BME280;72260;65.870;13.210;2023-12-14T02:27:39;100851.16;;;-12.46;70.64
82575;BME280;72260;65.870;13.210;2023-12-14T02:30:05;100847.09;;;-12.65;70.57
82575;BME280;72260;65.870;13.210;2023-12-14T02:32:31;100847.97;;;-12.64;70.63
82575;BME280;72260;65.870;13.210;2023-12-14T02:34:56;100849.97;;;-12.56;71.54
82575;BME280;72260;65.870;13.210;2023-12-14T02:37:22;100852.84;;;-12.46;72.55
82575;BME280;72260;65.870;13.210;2023-12-14T02:39:47;100852.41;;;-12.35;71.80
82575;BME280;72260;65.870;13.210;2023-12-14T02:42:13;100842.91;;;-11.86;73.96
82575;BME280;72260;65.870;13.210;2023-12-14T02:44:38;100842.03;;;-11.87;70.63
82575;BME280;72260;65.870;13.210;2023-12-14T02:47:04;100844.16;;;-12.01;69.83
82575;BME280;72260;65.870;13.210;2023-12-14T02:49:29;100835.31;;;-12.12;70.50
82575;BME280;72260;65.870;13.210;2023-12-14T02:51:55;100842.69;;;-12.19;69.58
82575;BME280;72260;65.870;13.210;2023-12-14T02:54:20;100840.97;;;-12.20;69.86
82575;BME280;72260;65.870;13.210;2023-12-14T02:56:46;100837.19;;;-12.32;70.69
82575;BME280;72260;65.870;13.210;2023-12-14T02:59:11;100840.56;;;-12.33;71.18
82575;BME280;72260;65.870;13.210;2023-12-14T03:01:37;100826.44;;;-12.23;70.81
82575;BME280;72260;65.870;13.210;2023-12-14T03:04:02;100834.66;;;-12.32;70.63
82575;BME280;72260;65.870;13.210;2023-12-14T03:06:28;100832.78;;;-12.37;71.69
82575;BME280;72260;65.870;13.210;2023-12-14T03:08:53;100825.97;;;-12.38;70.10
82575;BME280;72260;65.870;13.210;2023-12-14T03:11:22;100831.34;;;-12.54;70.65
82575;BME280;72260;65.870;13.210;2023-12-14T03:13:50;100828.59;;;-12.61;70.86
82575;BME280;72260;65.870;13.210;2023-12-14T03:16:16;100834.41;;;-12.39;70.56
82575;BME280;72260;65.870;13.210;2023-12-14T03:18:42;100832.72;;;-12.64;71.22
82575;BME280;72260;65.870;13.210;2023-12-14T03:21:09;100825.16;;;-12.86;69.54
82575;BME280;72260;65.870;13.210;2023-12-14T03:23:35;100843.56;;;-12.94;70.07
82575;BME280;72260;65.870;13.210;2023-12-14T03:26:00;100850.81;;;-13.04;71.31
82575;BME280;72260;65.870;13.210;2023-12-14T03:28:26;100852.16;;;-13.38;69.85
82575;BME280;72260;65.870;13.210;2023-12-14T03:30:52;100850.59;;;-13.34;69.57
82575;BME280;72260;65.870;13.210;2023-12-14T03:33:18;100836.38;;;-13.51;70.76
82575;BME280;72260;65.870;13.210;2023-12-14T03:35:43;100841.13;;;-13.61;72.71
82575;BME280;72260;65.870;13.210;2023-12-14T03:38:09;100831.78;;;-13.39;71.67
82575;BME280;72260;65.870;13.210;2023-12-14T03:40:35;100835.81;;;-13.44;72.56
82575;BME280;72260;65.870;13.210;2023-12-14T03:43:01;100829.47;;;-13.33;72.39
82575;BME280;72260;65.870;13.210;2023-12-14T03:45:28;100829.84;;;-13.22;71.00
82575;BME280;72260;65.870;13.210;2023-12-14T03:47:53;100835.34;;;-13.10;70.67
82575;BME280;72260;65.870;13.210;2023-12-14T03:50:19;100842.22;;;-13.08;70.60
82575;BME280;72260;65.870;13.210;2023-12-14T03:52:44;100839.72;;;-13.06;70.23
82575;BME280;72260;65.870;13.210;2023-12-14T03:55:10;100839.06;;;-13.25;70.33
82575;BME280;72260;65.870;13.210;2023-12-14T03:57:35;100833.75;;;-13.32;72.08
82575;BME280;72260;65.870;13.210;2023-12-14T04:00:01;100840.38;;;-13.12;72.39
82575;BME280;72260;65.870;13.210;2023-12-14T04:02:27;100844.53;;;-12.90;72.92
82575;BME280;72260;65.870;13.210;2023-12-14T04:04:53;100840.47;;;-12.85;74.20
82575;BME280;72260;65.870;13.210;2023-12-14T04:07:18;100837.25;;;-13.05;72.35
82575;BME280;72260;65.870;13.210;2023-12-14T04:09:44;100832.22;;;-13.03;70.30
82575;BME280;72260;65.870;13.210;2023-12-14T04:12:09;100837.97;;;-13.31;69.88
82575;BME280;72260;65.870;13.210;2023-12-14T04:14:35;100837.84;;;-13.36;69.95
82575;BME280;72260;65.870;13.210;2023-12-14T04:17:01;100832.88;;;-13.33;70.94
82575;BME280;72260;65.870;13.210;2023-12-14T04:19:26;100839.47;;;-13.38;71.27
82575;BME280;72260;65.870;13.210;2023-12-14T04:21:51;100836.91;;;-13.38;71.64
82575;BME280;72260;65.870;13.210;2023-12-14T04:24:17;100833.69;;;-13.34;72.17
82575;BME280;72260;65.870;13.210;2023-12-14T04:26:42;100832.75;;;-13.12;72.60
82575;BME280;72260;65.870;13.210;2023-12-14T04:29:08;100832.56;;;-12.93;71.63
82575;BME280;72260;65.870;13.210;2023-12-14T04:31:34;100827.94;;;-13.04;71.56
82575;BME280;72260;65.870;13.210;2023-12-14T04:33:59;100835.56;;;-13.04;69.55
82575;BME280;72260;65.870;13.210;2023-12-14T04:36:25;100827.47;;;-13.18;70.15
82575;BME280;72260;65.870;13.210;2023-12-14T04:38:50;100829.16;;;-13.41;70.52
82575;BME280;72260;65.870;13.210;2023-12-14T04:41:16;100832.25;;;-13.26;70.97
82575;BME280;72260;65.870;13.210;2023-12-14T04:43:41;100822.63;;;-13.10;70.17
82575;BME280;72260;65.870;13.210;2023-12-14T04:46:07;100828.59;;;-13.56;69.72
82575;BME280;72260;65.870;13.210;2023-12-14T04:48:32;100820.28;;;-13.74;72.04
82575;BME280;72260;65.870;13.210;2023-12-14T04:50:57;100830.03;;;-13.40;72.17
82575;BME280;72260;65.870;13.210;2023-12-14T04:53:23;100828.31;;;-13.41;71.40
82575;BME280;72260;65.870;13.210;2023-12-14T04:55:48;100823.22;;;-13.41;72.46
82575;BME280;72260;65.870;13.210;2023-12-14T04:58:14;100817.75;;;-13.04;70.41
82575;BME280;72260;65.870;13.210;2023-12-14T05:00:39;100817.53;;;-13.10;70.23
82575;BME280;72260;65.870;13.210;2023-12-14T05:03:05;100810.78;;;-13.10;70.82
82575;BME280;72260;65.870;13.210;2023-12-14T05:05:31;100819.75;;;-13.43;70.52
82575;BME280;72260;65.870;13.210;2023-12-14T05:07:56;100808.31;;;-13.54;71.07
82575;BME280;72260;65.870;13.210;2023-12-14T05:10:22;100807.28;;;-13.37;71.74
82575;BME280;72260;65.870;13.210;2023-12-14T05:12:47;100805.78;;;-13.31;71.52
82575;BME280;72260;65.870;13.210;2023-12-14T05:15:13;100811.75;;;-13.06;70.63
82575;BME280;72260;65.870;13.210;2023-12-14T05:17:39;100803.03;;;-13.13;70.71
82575;BME280;72260;65.870;13.210;2023-12-14T05:20:07;100808.19;;;-13.57;72.31
82575;BME280;72260;65.870;13.210;2023-12-14T05:22:33;100812.03;;;-13.69;72.23
82575;BME280;72260;65.870;13.210;2023-12-14T05:24:59;100804.00;;;-13.79;71.95
82575;BME280;72260;65.870;13.210;2023-12-14T05:27:24;100808.56;;;-13.71;72.59
82575;BME280;72260;65.870;13.210;2023-12-14T05:29:50;100804.78;;;-13.58;71.70
82575;BME280;72260;65.870;13.210;2023-12-14T05:32:15;100816.84;;;-13.52;73.06
82575;BME280;72260;65.870;13.210;2023-12-14T05:34:41;100799.25;;;-13.48;72.21
82575;BME280;72260;65.870;13.210;2023-12-14T05:37:06;100812.72;;;-13.27;71.59
82575;BME280;72260;65.870;13.210;2023-12-14T05:39:32;100816.47;;;-13.17;71.74
82575;BME280;72260;65.870;13.210;2023-12-14T05:41:57;100820.72;;;-12.92;70.97
82575;BME280;72260;65.870;13.210;2023-12-14T05:44:23;100814.06;;;-12.88;69.61
82575;BME280;72260;65.870;13.210;2023-12-14T05:46:49;100821.22;;;-13.02;69.76
82575;BME280;72260;65.870;13.210;2023-12-14T05:49:14;100810.41;;;-12.95;70.32
82575;BME280;72260;65.870;13.210;2023-12-14T05:51:40;100817.59;;;-13.09;70.30
82575;BME280;72260;65.870;13.210;2023-12-14T05:54:06;100814.69;;;-12.94;69.83
82575;BME280;72260;65.870;13.210;2023-12-14T05:56:31;100814.41;;;-13.03;70.54
82575;BME280;72260;65.870;13.210;2023-12-14T05:58:57;100819.22;;;-13.11;69.48
82575;BME280;72260;65.870;13.210;2023-12-14T06:01:23;100822.06;;;-13.49;70.33
82575;BME280;72260;65.870;13.210;2023-12-14T06:03:50;100829.28;;;-13.60;71.16
82575;BME280;72260;65.870;13.210;2023-12-14T06:06:16;100827.53;;;-13.61;70.78
82575;BME280;72260;65.870;13.210;2023-12-14T06:08:41;100827.34;;;-13.67;69.65
82575;BME280;72260;65.870;13.210;2023-12-14T06:11:08;100818.09;;;-14.08;70.36
82575;BME280;72260;65.870;13.210;2023-12-14T06:13:34;100828.69;;;-14.41;72.52
82575;BME280;72260;65.870;13.210;2023-12-14T06:15:59;100818.41;;;-14.21;72.19
82575;BME280;72260;65.870;13.210;2023-12-14T06:18:25;100816.69;;;-14.22;71.24
82575;BME280;72260;65.870;13.210;2023-12-14T06:20:51;100820.72;;;-14.07;71.68
82575;BME280;72260;65.870;13.210;2023-12-14T06:23:16;100829.69;;;-14.15;71.29
82575;BME280;72260;65.870;13.210;2023-12-14T06:25:42;100821.81;;;-14.21;72.73
82575;BME280;72260;65.870;13.210;2023-12-14T06:28:08;100824.47;;;-14.18;74.28
82575;BME280;72260;65.870;13.210;2023-12-14T06:30:33;100816.00;;;-13.75;71.53
82575;BME280;72260;65.870;13.210;2023-12-14T06:32:59;100823.44;;;-13.80;72.36
82575;BME280;72260;65.870;13.210;2023-12-14T06:35:24;100823.38;;;-13.59;70.97
82575;BME280;72260;65.870;13.210;2023-12-14T06:37:49;100831.31;;;-13.51;71.26
82575;BME280;72260;65.870;13.210;2023-12-14T06:40:15;100828.31;;;-13.41;70.59
82575;BME280;72260;65.870;13.210;2023-12-14T06:42:41;100819.97;;;-13.37;72.36
82575;BME280;72260;65.870;13.210;2023-12-14T06:45:07;100821.00;;;-13.08;72.91
82575;BME280;72260;65.870;13.210;2023-12-14T06:47:33;100815.63;;;-12.92;76.48
82575;BME280;72260;65.870;13.210;2023-12-14T06:49:59;100821.75;;;-12.62;74.72
82575;BME280;72260;65.870;13.210;2023-12-14T06:52:24;100812.91;;;-12.73;71.43
82575;BME280;72260;65.870;13.210;2023-12-14T06:54:50;100827.28;;;-12.75;70.82
82575;BME280;72260;65.870;13.210;2023-12-14T06:57:15;100815.84;;;-12.86;69.88
82575;BME280;72260;65.870;13.210;2023-12-14T06:59:41;100828.09;;;-13.00;69.03
82575;BME280;72260;65.870;13.210;2023-12-14T07:02:09;100813.97;;;-13.39;71.18
82575;BME280;72260;65.870;13.210;2023-12-14T07:04:35;100813.75;;;-13.21;70.82
82575;BME280;72260;65.870;13.210;2023-12-14T07:07:01;100823.47;;;-13.10;70.81
82575;BME280;72260;65.870;13.210;2023-12-14T07:09:26;100818.03;;;-13.20;71.02
82575;BME280;72260;65.870;13.210;2023-12-14T07:11:52;100825.78;;;-13.17;70.22
82575;BME280;72260;65.870;13.210;2023-12-14T07:14:17;100829.06;;;-13.20;69.10
82575;BME280;72260;65.870;13.210;2023-12-14T07:16:43;100825.13;;;-13.58;71.50
82575;BME280;72260;65.870;13.210;2023-12-14T07:19:09;100820.72;;;-13.62;71.14
82575;BME280;72260;65.870;13.210;2023-12-14T07:21:36;100823.19;;;-13.65;71.36
82575;BME280;72260;65.870;13.210;2023-12-14T07:24:02;100826.22;;;-13.51;70.47
82575;BME280;72260;65.870;13.210;2023-12-14T07:26:27;100825.97;;;-13.57;72.46
82575;BME280;72260;65.870;13.210;2023-12-14T07:28:54;100830.09;;;-13.83;70.37
82575;BME280;72260;65.870;13.210;2023-12-14T07:31:19;100815.16;;;-14.61;71.70
82575;BME280;72260;65.870;13.210;2023-12-14T07:33:45;100819.94;;;-14.47;73.07
82575;BME280;72260;65.870;13.210;2023-12-14T07:36:11;100824.16;;;-14.26;73.59
82575;BME280;72260;65.870;13.210;2023-12-14T07:38:36;100820.03;;;-14.03;73.73
82575;BME280;72260;65.870;13.210;2023-12-14T07:41:02;100817.56;;;-13.56;72.00
82575;BME280;72260;65.870;13.210;2023-12-14T07:43:28;100815.06;;;-13.55;71.51
82575;BME280;72260;65.870;13.210;2023-12-14T07:45:54;100819.09;;;-13.60;70.64
82575;BME280;72260;65.870;13.210;2023-12-14T07:48:19;100805.09;;;-13.73;71.00
82575;BME280;72260;65.870;13.210;2023-12-14T07:50:45;100825.19;;;-13.56;70.12
82575;BME280;72260;65.870;13.210;2023-12-14T07:53:11;100820.03;;;-13.58;69.59
82575;BME280;72260;65.870;13.210;2023-12-14T07:55:36;100816.03;;;-13.96;70.39
82575;BME280;72260;65.870;13.210;2023-12-14T07:58:02;100825.66;;;-14.10;71.10
82575;BME280;72260;65.870;13.210;2023-12-14T08:00:27;100827.56;;;-14.25;70.86
82575;BME280;72260;65.870;13.210;2023-12-14T08:02:53;100827.50;;;-14.27;73.25
82575;BME280;72260;65.870;13.210;2023-12-14T08:05:18;100819.22;;;-14.02;73.86
82575;BME280;72260;65.870;13.210;2023-12-14T08:07:44;100826.59;;;-13.85;73.52
82575;BME280;72260;65.870;13.210;2023-12-14T08:10:09;100830.88;;;-13.62;72.75
82575;BME280;72260;65.870;13.210;2023-12-14T08:12:35;100822.31;;;-13.19;70.64
82575;BME280;72260;65.870;13.210;2023-12-14T08:15:00;100824.16;;;-13.15;70.73
82575;BME280;72260;65.870;13.210;2023-12-14T08:17:26;100835.13;;;-12.93;69.49
82575;BME280;72260;65.870;13.210;2023-12-14T08:19:53;100831.78;;;-12.66;69.23
82575;BME280;72260;65.870;13.210;2023-12-14T08:22:18;100833.63;;;-12.62;68.31
82575;BME280;72260;65.870;13.210;2023-12-14T08:24:46;100835.84;;;-12.47;68.55
82575;BME280;72260;65.870;13.210;2023-12-14T08:27:11;100840.22;;;-12.43;68.75
82575;BME280;72260;65.870;13.210;2023-12-14T08:29:37;100837.06;;;-12.36;68.02
82575;BME280;72260;65.870;13.210;2023-12-14T08:32:04;100833.44;;;-12.43;68.09
82575;BME280;72260;65.870;13.210;2023-12-14T08:34:29;100840.72;;;-12.28;67.05
82575;BME280;72260;65.870;13.210;2023-12-14T08:36:55;100826.69;;;-12.42;68.05
82575;BME280;72260;65.870;13.210;2023-12-14T08:39:20;100843.47;;;-12.47;68.43
82575;BME280;72260;65.870;13.210;2023-12-14T08:41:46;100836.59;;;-12.50;67.44
82575;BME280;72260;65.870;13.210;2023-12-14T08:44:12;100844.34;;;-12.47;67.57
82575;BME280;72260;65.870;13.210;2023-12-14T08:46:39;100841.78;;;-12.72;68.97
82575;BME280;72260;65.870;13.210;2023-12-14T08:49:05;100848.59;;;-12.71;68.97
82575;BME280;72260;65.870;13.210;2023-12-14T08:51:31;100843.53;;;-12.46;67.32
82575;BME280;72260;65.870;13.210;2023-12-14T08:53:57;100846.88;;;-12.47;67.49
82575;BME280;72260;65.870;13.210;2023-12-14T08:56:22;100847.50;;;-12.54;68.87
82575;BME280;72260;65.870;13.210;2023-12-14T08:58:47;100849.00;;;-12.59;68.18
82575;BME280;72260;65.870;13.210;2023-12-14T09:01:22;100846.59;;;-12.80;68.12
82575;BME280;72260;65.870;13.210;2023-12-14T09:03:48;100838.47;;;-12.70;68.33
82575;BME280;72260;65.870;13.210;2023-12-14T09:06:16;100832.13;;;-12.81;68.77
82575;BME280;72260;65.870;13.210;2023-12-14T09:08:41;100848.97;;;-12.84;68.91
82575;BME280;72260;65.870;13.210;2023-12-14T09:11:07;100842.13;;;-12.62;68.15
82575;BME280;72260;65.870;13.210;2023-12-14T09:13:32;100838.38;;;-12.73;68.59
82575;BME280;72260;65.870;13.210;2023-12-14T09:15:58;100843.59;;;-12.44;67.36
82575;BME280;72260;65.870;13.210;2023-12-14T09:18:24;100838.53;;;-12.43;67.19
82575;BME280;72260;65.870;13.210;2023-12-14T09:20:50;100836.34;;;-12.58;67.25
82575;BME280;72260;65.870;13.210;2023-12-14T09:23:16;100836.53;;;-12.51;67.48
82575;BME280;72260;65.870;13.210;2023-12-14T09:25:42;100838.53;;;-12.68;68.18
82575;BME280;72260;65.870;13.210;2023-12-14T09:28:07;100835.63;;;-12.53;67.63
82575;BME280;72260;65.870;13.210;2023-12-14T09:30:33;100833.25;;;-12.49;67.66
82575;BME280;72260;65.870;13.210;2023-12-14T09:32:58;100824.91;;;-12.45;67.05
82575;BME280;72260;65.870;13.210;2023-12-14T09:35:24;100828.09;;;-12.25;66.78
82575;BME280;72260;65.870;13.210;2023-12-14T09:37:49;100836.34;;;-12.32;66.93
82575;BME280;72260;65.870;13.210;2023-12-14T09:40:15;100819.84;;;-12.43;67.23
82575;BME280;72260;65.870;13.210;2023-12-14T09:42:42;100823.25;;;-12.43;67.49
82575;BME280;72260;65.870;13.210;2023-12-14T09:45:08;100831.19;;;-12.34;68.30
82575;BME280;72260;65.870;13.210;2023-12-14T09:47:38;100833.94;;;-12.28;68.88
82575;BME280;72260;65.870;13.210;2023-12-14T09:50:04;100832.34;;;-12.24;69.53
82575;BME280;72260;65.870;13.210;2023-12-14T09:52:30;100822.22;;;-11.96;71.66
82575;BME280;72260;65.870;13.210;2023-12-14T09:54:56;100819.47;;;-12.03;67.52
82575;BME280;72260;65.870;13.210;2023-12-14T09:57:22;100830.31;;;-12.09;66.50
82575;BME280;72260;65.870;13.210;2023-12-14T09:59:54;100819.72;;;-11.94;65.66
82575;BME280;72260;65.870;13.210;2023-12-14T10:02:24;100834.50;;;-12.11;66.44
82575;BME280;72260;65.870;13.210;2023-12-14T10:04:50;100816.41;;;-12.18;66.67
82575;BME280;72260;65.870;13.210;2023-12-14T10:07:16;100823.66;;;-12.05;66.29
82575;BME280;72260;65.870;13.210;2023-12-14T10:09:42;100814.47;;;-12.26;66.75
82575;BME280;72260;65.870;13.210;2023-12-14T10:12:09;100822.13;;;-12.26;66.55
82575;BME280;72260;65.870;13.210;2023-12-14T10:14:35;100827.81;;;-12.33;66.60
82575;BME280;72260;65.870;13.210;2023-12-14T10:17:31;100829.72;;;-12.52;67.35
82575;BME280;72260;65.870;13.210;2023-12-14T10:19:57;100823.44;;;-12.62;67.80
82575;BME280;72260;65.870;13.210;2023-12-14T10:22:26;100813.41;;;-12.58;67.53
82575;BME280;72260;65.870;13.210;2023-12-14T10:24:53;100828.25;;;-12.71;67.98
82575;BME280;72260;65.870;13.210;2023-12-14T10:27:19;100821.31;;;-12.50;67.25
82575;BME280;72260;65.870;13.210;2023-12-14T10:29:45;100819.38;;;-12.57;67.36
82575;BME280;72260;65.870;13.210;2023-12-14T10:32:12;100830.91;;;-12.43;67.12
82575;BME280;72260;65.870;13.210;2023-12-14T10:34:37;100821.53;;;-12.44;66.70
82575;BME280;72260;65.870;13.210;2023-12-14T10:37:05;100825.97;;;-12.38;66.25
82575;BME280;72260;65.870;13.210;2023-12-14T10:39:32;100825.16;;;-12.37;66.67
82575;BME280;72260;65.870;13.210;2023-12-14T10:42:02;100821.69;;;-12.39;66.82
82575;BME280;72260;65.870;13.210;2023-12-14T10:44:30;100817.63;;;-12.34;66.53
82575;BME280;72260;65.870;13.210;2023-12-14T10:46:58;100814.22;;;-12.33;66.76
82575;BME280;72260;65.870;13.210;2023-12-14T10:49:24;100815.78;;;-12.38;66.78
82575;BME280;72260;65.870;13.210;2023-12-14T10:51:56;100822.03;;;-12.29;66.36
82575;BME280;72260;65.870;13.210;2023-12-14T10:54:26;100827.41;;;-12.19;66.66
82575;BME280;72260;65.870;13.210;2023-12-14T10:56:57;100822.59;;;-12.37;67.02
82575;BME280;72260;65.870;13.210;2023-12-14T10:59:26;100820.44;;;-12.50;66.79
82575;BME280;72260;65.870;13.210;2023-12-14T11:01:55;100809.97;;;-12.60;67.71
82575;BME280;72260;65.870;13.210;2023-12-14T11:04:25;100821.44;;;-12.47;67.03
82575;BME280;72260;65.870;13.210;2023-12-14T11:06:53;100819.28;;;-12.35;66.71
82575;BME280;72260;65.870;13.210;2023-12-14T11:09:22;100823.91;;;-12.48;67.72
82575;BME280;72260;65.870;13.210;2023-12-14T11:14:23;100814.03;;;-12.39;67.05
82575;BME280;72260;65.870;13.210;2023-12-14T11:16:48;100811.72;;;-12.32;66.23
82575;BME280;72260;65.870;13.210;2023-12-14T11:22:12;100807.81;;;-12.47;67.00
82575;BME280;72260;65.870;13.210;2023-12-14T11:24:51;100802.53;;;-12.53;66.50
82575;BME280;72260;65.870;13.210;2023-12-14T11:27:20;100800.91;;;-12.51;67.32
82575;BME280;72260;65.870;13.210;2023-12-14T11:29:47;100803.59;;;-12.47;67.88
82575;BME280;72260;65.870;13.210;2023-12-14T11:32:13;100793.47;;;-12.45;67.99
82575;BME280;72260;65.870;13.210;2023-12-14T11:34:39;100801.31;;;-12.12;68.03
82575;BME280;72260;65.870;13.210;2023-12-14T11:37:05;100792.50;;;-11.95;70.63
82575;BME280;72260;65.870;13.210;2023-12-14T11:39:31;100798.31;;;-11.99;66.88
82575;BME280;72260;65.870;13.210;2023-12-14T11:42:04;100801.75;;;-12.26;65.92
82575;BME280;72260;65.870;13.210;2023-12-14T11:44:30;100799.59;;;-12.40;66.33
82575;BME280;72260;65.870;13.210;2023-12-14T11:46:56;100802.84;;;-12.44;66.47
82575;BME280;72260;65.870;13.210;2023-12-14T11:49:24;100797.59;;;-12.49;66.85
82575;BME280;72260;65.870;13.210;2023-12-14T11:51:52;100802.41;;;-12.31;66.70
82575;BME280;72260;65.870;13.210;2023-12-14T11:54:18;100800.81;;;-12.28;66.68
82575;BME280;72260;65.870;13.210;2023-12-14T11:56:50;100790.00;;;-12.47;66.98
82575;BME280;72260;65.870;13.210;2023-12-14T11:59:16;100792.97;;;-12.34;66.29
82575;BME280;72260;65.870;13.210;2023-12-14T12:02:00;100797.81;;;-12.43;67.40
82575;BME280;72260;65.870;13.210;2023-12-14T12:04:27;100794.38;;;-12.43;66.32
82575;BME280;72260;65.870;13.210;2023-12-14T12:07:03;100800.78;;;-12.29;65.96
82575;BME280;72260;65.870;13.210;2023-12-14T12:09:42;100796.16;;;-12.41;65.32
82575;BME280;72260;65.870;13.210;2023-12-14T12:12:12;100785.16;;;-12.40;66.10
82575;BME280;72260;65.870;13.210;2023-12-14T12:14:39;100783.50;;;-12.39;66.40
82575;BME280;72260;65.870;13.210;2023-12-14T12:17:05;100788.00;;;-12.31;66.23
82575;BME280;72260;65.870;13.210;2023-12-14T12:19:36;100788.28;;;-12.22;65.89
82575;BME280;72260;65.870;13.210;2023-12-14T12:22:02;100774.75;;;-12.20;65.67
82575;BME280;72260;65.870;13.210;2023-12-14T12:24:28;100783.63;;;-12.35;65.83
82575;BME280;72260;65.870;13.210;2023-12-14T12:26:54;100784.25;;;-12.42;66.30
82575;BME280;72260;65.870;13.210;2023-12-14T12:29:21;100777.63;;;-12.37;65.62
82575;BME280;72260;65.870;13.210;2023-12-14T12:31:46;100766.31;;;-12.45;66.17